Time,TemperatureF,DewpointF,PressureIn,WindDirection,WindDirectionDegrees,WindSpeedMPH,WindSpeedGustMPH,Humidity,HourlyPrecipIn,Conditions,Clouds,dailyrainin,SoftwareType,DateUTC
2013-02-26 00:02:00,21.0,20.0,-100.00,South,185,8.0,9.0,98,-99.99,,,-99.99,,2013-02-26 06:02:00,
2013-02-26 00:10:00,18.0,18.0,-100.00,South,180,10.0,12.0,99,-99.99,,,-99.99,,2013-02-26 06:10:00,
2013-02-26 00:32:00,18.0,18.0,-100.00,South,180,10.0,12.0,99,-99.99,,,-99.99,,2013-02-26 06:32:00,
2013-02-26 00:42:00,18.0,18.0,-100.00,South,180,10.0,12.0,99,-99.99,,,-99.99,,2013-02-26 06:42:00,
2013-02-26 00:52:00,18.0,18.0,-100.00,South,180,10.0,12.0,99,-99.99,,,-99.99,,2013-02-26 06:52:00,
2013-02-26 01:01:00,18.0,18.0,-100.00,South,180,10.0,12.0,99,-99.99,,,-99.99,,2013-02-26 07:01:00,
2013-02-26 01:32:00,15.0,15.0,-100.00,SSE,160,7.0,8.0,99,-99.99,,,-99.99,,2013-02-26 07:32:00,
2013-02-26 01:42:00,15.0,15.0,-100.00,SSE,160,7.0,8.0,99,-99.99,,,-99.99,,2013-02-26 07:42:00,
2013-02-26 01:52:00,15.0,15.0,-100.00,SSE,160,7.0,8.0,99,-99.99,,,-99.99,,2013-02-26 07:52:00,
2013-02-26 02:02:00,15.0,15.0,-100.00,SSE,160,7.0,8.0,99,-99.99,,,-99.99,,2013-02-26 08:02:00,
2013-02-26 02:32:00,15.0,14.0,-100.00,SSE,165,9.0,9.0,99,-99.99,,,-99.99,,2013-02-26 08:32:00,
2013-02-26 02:42:00,15.0,14.0,-100.00,SSE,165,9.0,9.0,99,-99.99,,,-99.99,,2013-02-26 08:42:00,
2013-02-26 02:52:00,15.0,14.0,-100.00,SSE,165,9.0,9.0,99,-99.99,,,-99.99,,2013-02-26 08:52:00,
2013-02-26 03:01:00,15.0,14.0,-100.00,SSE,165,9.0,9.0,99,-99.99,,,-99.99,,2013-02-26 09:01:00,
2013-02-26 03:32:00,12.0,12.0,-100.00,South,170,12.0,14.0,99,-99.99,,,-99.99,,2013-02-26 09:32:00,
2013-02-26 03:43:00,12.0,12.0,-100.00,South,170,12.0,14.0,99,-99.99,,,-99.99,,2013-02-26 09:43:00,
2013-02-26 03:52:00,12.0,12.0,-100.00,South,170,12.0,14.0,99,-99.99,,,-99.99,,2013-02-26 09:52:00,
2013-02-26 04:01:00,12.0,12.0,-100.00,South,170,12.0,14.0,99,-99.99,,,-99.99,,2013-02-26 10:01:00,
2013-02-26 04:32:00,11.0,11.0,-100.00,South,175,10.0,11.0,99,-99.99,,,-99.99,,2013-02-26 10:32:00,
2013-02-26 04:42:00,11.0,11.0,-100.00,South,175,10.0,11.0,99,-99.99,,,-99.99,,2013-02-26 10:42:00,
2013-02-26 04:52:00,11.0,11.0,-100.00,South,175,10.0,11.0,99,-99.99,,,-99.99,,2013-02-26 10:52:00,
2013-02-26 05:01:00,11.0,11.0,-100.00,South,175,10.0,11.0,99,-99.99,,,-99.99,,2013-02-26 11:01:00,
2013-02-26 05:32:00,11.0,10.0,-100.00,South,175,7.0,9.0,99,-99.99,,,-99.99,,2013-02-26 11:32:00,
2013-02-26 05:42:00,11.0,10.0,-100.00,South,175,7.0,9.0,99,-99.99,,,-99.99,,2013-02-26 11:42:00,
2013-02-26 05:52:00,11.0,10.0,-100.00,South,175,7.0,9.0,99,-99.99,,,-99.99,,2013-02-26 11:52:00,
2013-02-26 06:01:00,11.0,10.0,-100.00,South,175,7.0,9.0,99,-99.99,,,-99.99,,2013-02-26 12:01:00,
2013-02-26 06:32:00,10.0,10.0,-100.00,SSE,165,9.0,10.0,99,-99.99,,,-99.99,,2013-02-26 12:32:00,
2013-02-26 06:42:00,10.0,10.0,-100.00,SSE,165,9.0,10.0,99,-99.99,,,-99.99,,2013-02-26 12:42:00,
2013-02-26 06:53:00,10.0,10.0,-100.00,SSE,165,9.0,10.0,99,-99.99,,,-99.99,,2013-02-26 12:53:00,
2013-02-26 07:01:00,10.0,10.0,-100.00,SSE,165,9.0,10.0,99,-99.99,,,-99.99,,2013-02-26 13:01:00,
2013-02-26 07:32:00,9.0,9.0,-100.00,SSE,165,11.0,12.0,99,-99.99,,,-99.99,,2013-02-26 13:32:00,
2013-02-26 07:42:00,9.0,9.0,-100.00,SSE,165,11.0,12.0,99,-99.99,,,-99.99,,2013-02-26 13:42:00,
2013-02-26 07:52:00,9.0,9.0,-100.00,SSE,165,11.0,12.0,99,-99.99,,,-99.99,,2013-02-26 13:52:00,
2013-02-26 08:01:00,9.0,9.0,-100.00,SSE,165,11.0,12.0,99,-99.99,,,-99.99,,2013-02-26 14:01:00,
2013-02-26 08:32:00,10.0,10.0,-100.00,SSE,165,6.0,7.0,99,-99.99,,,-99.99,,2013-02-26 14:32:00,
2013-02-26 08:42:00,10.0,10.0,-100.00,SSE,165,6.0,7.0,99,-99.99,,,-99.99,,2013-02-26 14:42:00,
2013-02-26 08:52:00,10.0,10.0,-100.00,SSE,165,6.0,7.0,99,-99.99,,,-99.99,,2013-02-26 14:52:00,
2013-02-26 09:02:00,10.0,10.0,-100.00,SSE,165,6.0,7.0,99,-99.99,,,-99.99,,2013-02-26 15:02:00,
2013-02-26 09:10:00,12.0,12.0,-100.00,SSE,165,9.0,11.0,99,-99.99,,,-99.99,,2013-02-26 15:10:00,
2013-02-26 09:32:00,12.0,12.0,-100.00,SSE,165,9.0,11.0,99,-99.99,,,-99.99,,2013-02-26 15:32:00,
2013-02-26 09:42:00,12.0,12.0,-100.00,SSE,165,9.0,11.0,99,-99.99,,,-99.99,,2013-02-26 15:42:00,
2013-02-26 09:52:00,12.0,12.0,-100.00,SSE,165,9.0,11.0,99,-99.99,,,-99.99,,2013-02-26 15:52:00,
2013-02-26 10:01:00,12.0,12.0,-100.00,SSE,165,9.0,11.0,99,-99.99,,,-99.99,,2013-02-26 16:01:00,
2013-02-26 10:32:00,16.0,16.0,-100.00,South,175,6.0,7.0,99,-99.99,,,-99.99,,2013-02-26 16:32:00,
2013-02-26 10:42:00,16.0,16.0,-100.00,South,175,6.0,7.0,99,-99.99,,,-99.99,,2013-02-26 16:42:00,
2013-02-26 10:52:00,16.0,16.0,-100.00,South,175,6.0,7.0,99,-99.99,,,-99.99,,2013-02-26 16:52:00,
2013-02-26 11:01:00,16.0,16.0,-100.00,South,175,6.0,7.0,99,-99.99,,,-99.99,,2013-02-26 17:01:00,
2013-02-26 11:32:00,19.0,19.0,-100.00,SSE,150,9.0,10.0,99,-99.99,,,-99.99,,2013-02-26 17:32:00,
2013-02-26 11:42:00,19.0,19.0,-100.00,SSE,150,9.0,10.0,99,-99.99,,,-99.99,,2013-02-26 17:42:00,
2013-02-26 11:52:00,19.0,19.0,-100.00,SSE,150,9.0,10.0,99,-99.99,,,-99.99,,2013-02-26 17:52:00,
2013-02-26 12:01:00,19.0,19.0,-100.00,SSE,150,9.0,10.0,99,-99.99,,,-99.99,,2013-02-26 18:01:00,
2013-02-26 12:10:00,21.0,21.0,-100.00,SSE,150,9.0,11.0,99,-99.99,,,-99.99,,2013-02-26 18:10:00,
2013-02-26 12:32:00,21.0,21.0,-100.00,SSE,150,9.0,11.0,99,-99.99,,,-99.99,,2013-02-26 18:32:00,
2013-02-26 12:42:00,21.0,21.0,-100.00,SSE,150,9.0,11.0,99,-99.99,,,-99.99,,2013-02-26 18:42:00,
2013-02-26 12:52:00,21.0,21.0,-100.00,SSE,150,9.0,11.0,99,-99.99,,,-99.99,,2013-02-26 18:52:00,
2013-02-26 13:01:00,21.0,21.0,-100.00,SSE,150,9.0,11.0,99,-99.99,,,-99.99,,2013-02-26 19:01:00,
2013-02-26 13:32:00,24.0,24.0,-100.00,SSE,165,9.0,11.0,99,-99.99,,,-99.99,,2013-02-26 19:32:00,
2013-02-26 13:42:00,24.0,24.0,-100.00,SSE,165,9.0,11.0,99,-99.99,,,-99.99,,2013-02-26 19:42:00,
2013-02-26 13:52:00,24.0,24.0,-100.00,SSE,165,9.0,11.0,99,-99.99,,,-99.99,,2013-02-26 19:52:00,
2013-02-26 14:01:00,24.0,24.0,-100.00,SSE,165,9.0,11.0,99,-99.99,,,-99.99,,2013-02-26 20:01:00,
2013-02-26 14:32:00,26.0,24.0,-100.00,SSE,150,9.0,11.0,95,-99.99,,,-99.99,,2013-02-26 20:32:00,
2013-02-26 14:42:00,26.0,24.0,-100.00,SSE,150,9.0,11.0,95,-99.99,,,-99.99,,2013-02-26 20:42:00,
2013-02-26 14:52:00,26.0,24.0,-100.00,SSE,150,9.0,11.0,95,-99.99,,,-99.99,,2013-02-26 20:52:00,
2013-02-26 15:01:00,26.0,24.0,-100.00,SSE,150,9.0,11.0,95,-99.99,,,-99.99,,2013-02-26 21:01:00,
2013-02-26 15:31:00,27.0,26.0,-100.00,SE,140,5.0,6.0,94,-99.99,,,-99.99,,2013-02-26 21:31:00,
2013-02-26 15:41:00,27.0,26.0,-100.00,SE,140,5.0,6.0,94,-99.99,,,-99.99,,2013-02-26 21:41:00,
2013-02-26 15:51:00,27.0,26.0,-100.00,SE,140,5.0,6.0,94,-99.99,,,-99.99,,2013-02-26 21:51:00,
2013-02-26 16:01:00,27.0,26.0,-100.00,SE,140,5.0,6.0,94,-99.99,,,-99.99,,2013-02-26 22:01:00,
2013-02-26 16:32:00,26.0,25.0,-100.00,SE,145,4.0,5.0,94,-99.99,,,-99.99,,2013-02-26 22:32:00,
2013-02-26 16:42:00,26.0,25.0,-100.00,SE,145,4.0,5.0,94,-99.99,,,-99.99,,2013-02-26 22:42:00,
2013-02-26 16:52:00,26.0,25.0,-100.00,SE,145,4.0,5.0,94,-99.99,,,-99.99,,2013-02-26 22:52:00,
2013-02-26 17:01:00,26.0,25.0,-100.00,SE,145,4.0,5.0,94,-99.99,,,-99.99,,2013-02-26 23:01:00,
2013-02-26 17:32:00,24.0,23.0,-100.00,ESE,120,4.0,5.0,95,-99.99,,,-99.99,,2013-02-26 23:32:00,
2013-02-26 17:42:00,24.0,23.0,-100.00,ESE,120,4.0,5.0,95,-99.99,,,-99.99,,2013-02-26 23:42:00,
2013-02-26 17:52:00,24.0,23.0,-100.00,ESE,120,4.0,5.0,95,-99.99,,,-99.99,,2013-02-26 23:52:00,
2013-02-26 18:01:00,24.0,23.0,-100.00,ESE,120,4.0,5.0,95,-99.99,,,-99.99,,2013-02-27 00:01:00,
2013-02-26 19:10:00,19.0,18.0,-100.00,ESE,120,3.0,3.0,99,-99.99,,,-99.99,,2013-02-27 01:10:00,
2013-02-26 19:32:00,19.0,18.0,-100.00,ESE,120,3.0,3.0,99,-99.99,,,-99.99,,2013-02-27 01:32:00,
2013-02-26 19:42:00,19.0,18.0,-100.00,ESE,120,3.0,3.0,99,-99.99,,,-99.99,,2013-02-27 01:42:00,
2013-02-26 19:52:00,19.0,18.0,-100.00,ESE,120,3.0,3.0,99,-99.99,,,-99.99,,2013-02-27 01:52:00,
2013-02-26 20:01:00,19.0,18.0,-100.00,ESE,120,3.0,3.0,99,-99.99,,,-99.99,,2013-02-27 02:01:00,
2013-02-26 20:32:00,18.0,17.0,-100.00,ESE,105,1.0,2.0,99,-99.99,,,-99.99,,2013-02-27 02:32:00,
2013-02-26 20:42:00,18.0,17.0,-100.00,ESE,105,1.0,2.0,99,-99.99,,,-99.99,,2013-02-27 02:42:00,
2013-02-26 20:52:00,18.0,17.0,-100.00,ESE,105,1.0,2.0,99,-99.99,,,-99.99,,2013-02-27 02:52:00,
2013-02-26 21:02:00,18.0,17.0,-100.00,ESE,105,1.0,2.0,99,-99.99,,,-99.99,,2013-02-27 03:02:00,
2013-02-26 21:32:00,16.0,16.0,-100.00,SSE,165,1.0,1.0,99,-99.99,,,-99.99,,2013-02-27 03:32:00,
2013-02-26 21:42:00,16.0,16.0,-100.00,SSE,165,1.0,1.0,99,-99.99,,,-99.99,,2013-02-27 03:42:00,
2013-02-26 21:52:00,16.0,16.0,-100.00,SSE,165,1.0,1.0,99,-99.99,,,-99.99,,2013-02-27 03:52:00,
2013-02-26 22:01:00,16.0,16.0,-100.00,SSE,165,1.0,1.0,99,-99.99,,,-99.99,,2013-02-27 04:01:00,
2013-02-26 22:32:00,16.0,15.0,-100.00,WNW,295,1.0,1.0,99,-99.99,,,-99.99,,2013-02-27 04:32:00,
2013-02-26 22:42:00,16.0,15.0,-100.00,WNW,295,1.0,1.0,99,-99.99,,,-99.99,,2013-02-27 04:42:00,
2013-02-26 22:52:00,16.0,15.0,-100.00,WNW,295,1.0,1.0,99,-99.99,,,-99.99,,2013-02-27 04:52:00,
2013-02-26 23:01:00,16.0,15.0,-100.00,WNW,295,1.0,1.0,99,-99.99,,,-99.99,,2013-02-27 05:01:00,
2013-02-26 23:32:00,15.0,15.0,-100.00,WSW,245,4.0,5.0,99,-99.99,,,-99.99,,2013-02-27 05:32:00,
2013-02-26 23:42:00,15.0,15.0,-100.00,WSW,245,4.0,5.0,99,-99.99,,,-99.99,,2013-02-27 05:42:00,
2013-02-26 23:52:00,15.0,15.0,-100.00,WSW,245,4.0,5.0,99,-99.99,,,-99.99,,2013-02-27 05:52:00,